Watertown, TN (37184)

1:53 AM CDT on July 07, 2015 (GMT -0500)
Commerce | | Change Station
CLOSE
Current Station
Personal Weather Station
Location: Watertown, TN
Elevation: 614 ft
Nearby Weather Stations

Elev 614 ft 36.13 °N, 86.12 °W | Updated 4 minutes ago

Clear
Clear
72.5 °F
Feels Like 72.5 °F
N
1.1
Wind Variable Wind from SW

Today
High -- | Low -- °F
--% Chance of Precip.
Yesterday
High -- | Low -- °F
Precip. -- in
5:34 AM 8:04 PM
Waning Gibbous, 68% visible
Pressure 30.10 in
Visibility 10.0 miles
Clouds Clear
Dew Point 72 °F
Humidity 99%
Rainfall 0.00 in
Snow Depth Not available.
UV 0 out of 12
Pollen 3.30 out of 12
Air Quality Not available.
Flu Activity Not available.
METAR KMQY 070556Z AUTO 16005KT 10SM CLR 23/22 A3009 RMK AO2 51003 60000 T02330216 10300 20233 403160200 SLP191

More Conditions Fewer Conditions

Pressure 30.10 in
Visibility 10.0 miles
Clouds Clear
Dew Point 72 °F
Humidity 99%
Rainfall 0.00 in
Snow Depth Not available.
UV 0 out of 12
Pollen 3.30 out of 12
Air Quality Not available.
Flu Activity Not available.
METAR KMQY 070556Z AUTO 16005KT 10SM CLR 23/22 A3009 RMK AO2 51003 60000 T02330216 10300 20233 403160200 SLP191

More Conditions Fewer Conditions

10-Day Weather Forecast

×

Almanac

Astronomy

Jul. 07, 2015 Rise Set
Actual Time
Civil Twilight
Nautical Twilight
Astronomical Twilight
Moon
Length of Visible Light
Length of Day
Tomorrow will be .
, % of the Moon is Illuminated

Today's Extremes

State Highs State Lows

Community

WunderPhotos

Upload Photos

1,835,743 photos uploaded!

WunderBlogs® & News

Nearby

Air Quality

  Air Quality AQ Index Pollutant
Not available.

Snow Depth

Station Depth Elevation

Earthquake Activity

City Distance Mag. Time & Date
Minimum magnitude displayed is 2.5.

Coastal Water Temperatures

Place Temperature

Stations

Nearby Weather Stations

Station Location Temp. Windchill Dew Point Humidity Wind Precip. Elev Updated Type